Home > Products > Valid Products > TAF

000
FTUS41 KPBZ 311730
TAFAGC
TAF
KAGC 311730Z 3118/0118 27004KT P6SM BKN035
     FM010900 00000KT 4SM BR SKC
     FM011400 26004KT P6SM SCT035=



000
FTUS41 KPBZ 311730
TAFBVI
TAF
KBVI 311730Z 3118/0118 23006KT P6SM BKN035
     FM010900 00000KT 4SM BR SKC
     FM011400 26004KT P6SM SCT040=



000
FTUS41 KPBZ 311730
TAFZZV
TAF
KZZV 311730Z 3118/0118 23005KT P6SM BKN040
     FM010800 00000KT 2SM BR SKC
     FM011400 26004KT P6SM SCT035=



000
FTUS41 KPBZ 311730
TAFPIT
TAF
KPIT 311730Z 3118/0124 23006KT P6SM BKN035
     FM010900 00000KT 4SM BR SKC
     FM011400 26004KT P6SM SCT040=



000
FTUS41 KPBZ 311730
TAFHLG
TAF
KHLG 311730Z 3118/0118 25005KT P6SM BKN035
     FM010800 00000KT 2SM BR SKC
     FM011400 26004KT P6SM SCT035=



000
FTUS41 KPBZ 311730
TAFDUJ
TAF
KDUJ 311730Z 3118/0118 27005KT P6SM BKN040
     FM010900 00000KT 2SM BR SKC
     FM011400 26004KT P6SM SCT035=



000
FTUS41 KPBZ 311730
TAFLBE
TAF
KLBE 311730Z 3118/0118 27004KT P6SM BKN035
     FM010900 00000KT 4SM BR SKC
     FM011400 26004KT P6SM SCT035=



000
FTUS41 KPBZ 311730
TAFMGW
TAF
KMGW 311730Z 3118/0118 27005KT P6SM SCT035
     FM010900 00000KT 2SM BR SKC
     FM011400 26004KT P6SM SCT035=



000
FTUS41 KPBZ 311455 AAA
TAFPIT
TAF AMD
KPIT 311455Z 3115/0118 23006KT P6SM BKN250
     FM010900 00000KT 4SM BR SKC=



000
FTUS41 KPBZ 311328 AAA
TAFZZV
TAF AMD
KZZV 311328Z 3113/0112 00000KT P6SM SCT250
     FM311600 23005KT P6SM SCT040
     FM010800 00000KT 2SM BR SKC=



000
FTUS41 KPBZ 311328 AAA
TAFZZV
TAF AMD
KZZV 311328Z 3113/0112 00000KT P6SM SCT250
     FM311600 23005KT P6SM SCT040
     FM010800 00000KT 2SM BR SKC=



000
FTUS41 KPBZ 311132
TAFPIT
TAF
KPIT 311132Z 3112/0118 00000KT P6SM BKN250
     FM311400 25006KT P6SM SCT040
     FM010900 00000KT 4SM BR SKC=



000
FTUS41 KPBZ 311132
TAFAGC
TAF
KAGC 311132Z 3112/0112 VRB03KT P6SM BKN250
     FM311400 25006KT P6SM SCT040
     FM010900 00000KT 4SM BR SKC=



000
FTUS41 KPBZ 311132
TAFMGW
TAF
KMGW 311132Z 3112/0112 00000KT P6SM SKC
     FM311400 23005KT P6SM SCT040 BKN250
     FM010900 00000KT 2SM BR SKC=



000
FTUS41 KPBZ 311132
TAFZZV
TAF
KZZV 311132Z 3112/0112 00000KT 3SM BR SKC
     FM311400 23005KT P6SM SCT040
     FM010800 00000KT 2SM BR SKC=



000
FTUS41 KPBZ 311132
TAFDUJ
TAF
KDUJ 311132Z 3112/0112 00000KT 2SM BR SCT100
     FM311400 23005KT P6SM SCT040
     FM010900 00000KT 2SM BR SKC=



000
FTUS41 KPBZ 311132
TAFLBE
TAF
KLBE 311132Z 3112/0112 00000KT P6SM BKN250
     FM311400 25006KT P6SM SCT040
     FM010900 00000KT 4SM BR SKC=



000
FTUS41 KPBZ 311132
TAFHLG
TAF
KHLG 311132Z 3112/0112 21004KT 5SM BR SKC
     FM311300 25005KT P6SM SCT040
     FM010800 00000KT 2SM BR SKC=



000
FTUS41 KPBZ 311132
TAFBVI
TAF
KBVI 311132Z 3112/0112 00000KT P6SM BKN250
     FM311400 25006KT P6SM SCT040
     FM010900 00000KT 4SM BR SKC
      AMD NOT SKED=



000
FTUS41 KPBZ 310959 AAB
TAFDUJ
TAF AMD
KDUJ 310959Z 3110/0106 VRB02KT 3SM BR SCT250
      TEMPO 3111/3113 1SM BR
     FM311400 23005KT P6SM SCT040=



000
FTUS41 KPBZ 310957 AAB
TAFHLG
TAF AMD
KHLG 310957Z 3110/0106 12004KT 6SM BR SCT250
      TEMPO 3111/3113 1 1/2SM BR
     FM311400 25005KT P6SM SCT040=



000
FTUS41 KPBZ 310957 AAA
TAFMGW
TAF AMD
KMGW 310957Z 3110/0106 00000KT P6SM FEW120 OVC250
      TEMPO 3110/3114 4SM BR
     FM311400 23005KT P6SM SCT040 BKN250=



000
FTUS41 KPBZ 310858 AAA
TAFPIT
TAF AMD
KPIT 310858Z 3109/0112 00000KT P6SM SCT140 BKN250
     FM311000 00000KT 4SM BR BKN250
     FM311400 25006KT P6SM SCT040=



000
FTUS41 KPBZ 310858 AAA
TAFPIT
TAF AMD
KPIT 310858Z 3109/0112 00000KT P6SM SCT140 BKN250
     FM311000 00000KT 4SM BR BKN250
     FM311400 25006KT P6SM SCT040=



000
FTUS41 KPBZ 310841 AAA
TAFHLG
TAF AMD
KHLG 310841Z 3109/0106 12004KT 2SM BR SCT250
      TEMPO 3109/3113 1SM BR
     FM311400 25005KT P6SM SCT040=



000
FTUS41 KPBZ 310841 AAA
TAFHLG
TAF AMD
KHLG 310841Z 3109/0106 12004KT 2SM BR SCT250
      TEMPO 3109/3113 1SM BR
     FM311400 25005KT P6SM SCT040=



000
FTUS41 KPBZ 310704 AAA
TAFZZV
TAF AMD
KZZV 310704Z 3107/0106 00000KT 4SM BR SCT250
      TEMPO 3111/3113 1 1/2SM BR
     FM311400 23005KT P6SM SCT040=



000
FTUS41 KPBZ 310653 AAA
TAFDUJ
TAF AMD
KDUJ 310653Z 3107/0106 23004KT 2SM BR BKN250
     FM310900 VRB02KT 1SM BR SCT250
      TEMPO 3111/3113 1/2SM FG
     FM311400 23005KT P6SM SCT040=



000
FTUS41 KPBZ 310653 AAA
TAFDUJ
TAF AMD
KDUJ 310653Z 3107/0106 23004KT 2SM BR BKN250
     FM310900 VRB02KT 1SM BR SCT250
      TEMPO 3111/3113 1/2SM FG
     FM311400 23005KT P6SM SCT040=



000
FTUS41 KPBZ 310520
TAFDUJ
TAF
KDUJ 310520Z 3106/0106 19004KT 5SM HZ FEW080 OVC250
     FM310900 VRB02KT 2SM BR SCT250
      TEMPO 3111/3113 1/2SM FG
     FM311400 23005KT P6SM SCT040=



000
FTUS41 KPBZ 310520
TAFZZV
TAF
KZZV 310520Z 3106/0106 00000KT P6SM FEW045
     FM310900 VRB02KT 4SM BR FEW250
      TEMPO 3111/3113 1 1/2SM BR
     FM311400 23005KT P6SM SCT040=



000
FTUS41 KPBZ 310520
TAFLBE
TAF
KLBE 310520Z 3106/0106 00000KT P6SM BKN130 OVC250
     FM310900 VRB02KT 4SM BR OVC250
     FM311400 25005KT P6SM SCT040 BKN250=



000
FTUS41 KPBZ 310520
TAFBVI
TAF
KBVI 310520Z 3106/0106 00000KT P6SM SCT140 BKN250
     FM310900 VRB02KT 3SM BR SCT250
     FM311400 26007KT P6SM SCT040
      AMD NOT SKED=



000
FTUS41 KPBZ 310520
TAFMGW
TAF
KMGW 310520Z 3106/0106 00000KT P6SM FEW120 OVC250
     FM310900 VRB02KT 4SM BR BKN250
     FM311400 23005KT P6SM SCT040 BKN250=



000
FTUS41 KPBZ 310520
TAFHLG
TAF
KHLG 310520Z 3106/0106 22003KT P6SM SCT110 BKN250
     FM310900 VRB02KT 4SM BR BKN250
      TEMPO 3111/3113 1 1/2SM BR
     FM311400 25005KT P6SM SCT040=



000
FTUS41 KPBZ 310520
TAFPIT
TAF
KPIT 310520Z 3106/0112 00000KT P6SM SCT140 BKN250
     FM311000 00000KT 4SM BR BKN250
     FM311400 25006KT P6SM SCT040=



000
FTUS41 KPBZ 310520
TAFAGC
TAF
KAGC 310520Z 3106/0106 00000KT P6SM SCT140 BKN250
     FM311000 00000KT 4SM BR BKN250
     FM311400 25006KT P6SM SCT040=



000
FTUS41 KPBZ 310520
TAFBVI
TAF
KBVI 310520Z 3106/0106 00000KT P6SM SCT140 BKN250
     FM310900 VRB02KT 3SM BR SCT250
     FM311400 26007KT P6SM SCT040
      AMD NOT SKED=



000
FTUS41 KPBZ 310520
TAFLBE
TAF
KLBE 310520Z 3106/0106 00000KT P6SM BKN130 OVC250
     FM310900 VRB02KT 4SM BR OVC250
     FM311400 25005KT P6SM SCT040 BKN250=



000
FTUS41 KPBZ 310520
TAFMGW
TAF
KMGW 310520Z 3106/0106 00000KT P6SM FEW120 OVC250
     FM310900 VRB02KT 4SM BR BKN250
     FM311400 23005KT P6SM SCT040 BKN250=



000
FTUS41 KPBZ 310520
TAFPIT
TAF
KPIT 310520Z 3106/0112 00000KT P6SM SCT140 BKN250
     FM311000 00000KT 4SM BR BKN250
     FM311400 25006KT P6SM SCT040=



000
FTUS41 KPBZ 310520
TAFHLG
TAF
KHLG 310520Z 3106/0106 22003KT P6SM SCT110 BKN250
     FM310900 VRB02KT 4SM BR BKN250
      TEMPO 3111/3113 1 1/2SM BR
     FM311400 25005KT P6SM SCT040=



000
FTUS41 KPBZ 310520
TAFDUJ
TAF
KDUJ 310520Z 3106/0106 19004KT 5SM HZ FEW080 OVC250
     FM310900 VRB02KT 2SM BR SCT250
      TEMPO 3111/3113 1/2SM FG
     FM311400 23005KT P6SM SCT040=



000
FTUS41 KPBZ 310520
TAFZZV
TAF
KZZV 310520Z 3106/0106 00000KT P6SM FEW045
     FM310900 VRB02KT 4SM BR FEW250
      TEMPO 3111/3113 1 1/2SM BR
     FM311400 23005KT P6SM SCT040=



000
FTUS41 KPBZ 310520
TAFAGC
TAF
KAGC 310520Z 3106/0106 00000KT P6SM SCT140 BKN250
     FM311000 00000KT 4SM BR BKN250
     FM311400 25006KT P6SM SCT040=



000
FTUS41 KPBZ 310257 AAA
TAFPIT
TAF AMD
KPIT 310257Z 3103/0106 22004KT P6SM BKN120
     FM310900 VRB02KT 4SM BR SCT250
     FM311400 23005KT P6SM SCT040 BKN250=



000
FTUS41 KPBZ 310257 AAA
TAFPIT
TAF AMD
KPIT 310257Z 3103/0106 22004KT P6SM BKN120
     FM310900 VRB02KT 4SM BR SCT250
     FM311400 23005KT P6SM SCT040 BKN250=



000
FTUS41 KPBZ 310247 AAB
TAFDUJ
TAF AMD
KDUJ 310247Z 3103/3124 00000KT 5SM BR FEW080
     FM310900 VRB02KT 2SM BR SCT250
     FM311400 23005KT P6SM SCT040 BKN250=



000
FTUS41 KPBZ 310247 AAB
TAFDUJ
TAF AMD
KDUJ 310247Z 3103/3124 00000KT 5SM BR FEW080
     FM310900 VRB02KT 2SM BR SCT250
     FM311400 23005KT P6SM SCT040 BKN250=



000
FTUS41 KPBZ 310129 AAA
TAFDUJ
TAF AMD
KDUJ 310129Z 3101/3124 00000KT 1SM BR SKC
     FM310900 VRB02KT 1/2SM FG VV002
     FM311300 VRB03KT 2SM BR SCT004
     FM311400 23005KT P6SM SCT040 BKN250=



000
FTUS41 KPBZ 302339
TAFAGC
TAF
KAGC 302339Z 3100/3124 22004KT P6SM FEW040 BKN120
     FM310900 VRB02KT 4SM BR SCT250
     FM311400 23005KT P6SM SCT040 BKN250=



000
FTUS41 KPBZ 302339
TAFPIT
TAF
KPIT 302339Z 3100/0106 24004KT P6SM FEW040 BKN120
     FM310900 VRB02KT 4SM BR SCT250
     FM311400 23005KT P6SM SCT040 BKN250=



000
FTUS41 KPBZ 302339
TAFMGW
TAF
KMGW 302339Z 3100/3124 25003KT P6SM -RA SCT040 BKN100
     FM310900 VRB02KT 4SM BR SCT250
     FM311400 23005KT P6SM SCT040 BKN250=



000
FTUS41 KPBZ 302339
TAFHLG
TAF
KHLG 302339Z 3100/3124 23004KT P6SM SCT045 BKN100
     FM310900 VRB02KT 4SM BR SCT250
      TEMPO 3111/3113 1 1/2SM BR
     FM311400 23005KT P6SM SCT040 BKN250=



000
FTUS41 KPBZ 302339
TAFLBE
TAF
KLBE 302339Z 3100/3124 22008KT P6SM FEW040 BKN120
     FM310900 VRB02KT 4SM BR SCT250
     FM311400 23005KT P6SM SCT040 BKN250=



000
FTUS41 KPBZ 302339
TAFZZV
TAF
KZZV 302339Z 3100/3124 10005KT P6SM SCT045 BKN100
     FM310900 VRB02KT 4SM BR SCT250
      TEMPO 3111/3113 1 1/2SM BR
     FM311400 23005KT P6SM SCT040 BKN250=



000
FTUS41 KPBZ 302339
TAFBVI
TAF
KBVI 302339Z 3100/3124 23004KT P6SM FEW040 BKN120
     FM310900 VRB02KT 3SM BR SCT250
     FM311400 23005KT P6SM SCT040 BKN250
      AMD NOT SKED=



000
FTUS41 KPBZ 302339
TAFDUJ
TAF
KDUJ 302339Z 3100/3124 00000KT P6SM SCT045 BKN100
     FM310800 VRB02KT 4SM BR SCT250
      TEMPO 3110/3113 1 1/2SM BR
     FM311400 23005KT P6SM SCT040 BKN250=



000
FTUS41 KPBZ 302339
TAFAGC
TAF
KAGC 302339Z 3100/3124 22004KT P6SM FEW040 BKN120
     FM310900 VRB02KT 4SM BR SCT250
     FM311400 23005KT P6SM SCT040 BKN250=



000
FTUS41 KPBZ 302339
TAFLBE
TAF
KLBE 302339Z 3100/3124 22008KT P6SM FEW040 BKN120
     FM310900 VRB02KT 4SM BR SCT250
     FM311400 23005KT P6SM SCT040 BKN250=



000
FTUS41 KPBZ 302339
TAFZZV
TAF
KZZV 302339Z 3100/3124 10005KT P6SM SCT045 BKN100
     FM310900 VRB02KT 4SM BR SCT250
      TEMPO 3111/3113 1 1/2SM BR
     FM311400 23005KT P6SM SCT040 BKN250=



000
FTUS41 KPBZ 302339
TAFBVI
TAF
KBVI 302339Z 3100/3124 23004KT P6SM FEW040 BKN120
     FM310900 VRB02KT 3SM BR SCT250
     FM311400 23005KT P6SM SCT040 BKN250
      AMD NOT SKED=



000
FTUS41 KPBZ 302339
TAFPIT
TAF
KPIT 302339Z 3100/0106 24004KT P6SM FEW040 BKN120
     FM310900 VRB02KT 4SM BR SCT250
     FM311400 23005KT P6SM SCT040 BKN250=



000
FTUS41 KPBZ 302339
TAFMGW
TAF
KMGW 302339Z 3100/3124 25003KT P6SM -RA SCT040 BKN100
     FM310900 VRB02KT 4SM BR SCT250
     FM311400 23005KT P6SM SCT040 BKN250=



000
FTUS41 KPBZ 302339
TAFHLG
TAF
KHLG 302339Z 3100/3124 23004KT P6SM SCT045 BKN100
     FM310900 VRB02KT 4SM BR SCT250
      TEMPO 3111/3113 1 1/2SM BR
     FM311400 23005KT P6SM SCT040 BKN250=



000
FTUS41 KPBZ 302339
TAFDUJ
TAF
KDUJ 302339Z 3100/3124 00000KT P6SM SCT045 BKN100
     FM310800 VRB02KT 4SM BR SCT250
      TEMPO 3110/3113 1 1/2SM BR
     FM311400 23005KT P6SM SCT040 BKN250=



000
FTUS41 KPBZ 302234 AAB
TAFHLG
TAF AMD
KHLG 302234Z 3023/3118 22005KT P6SM SCT045 BKN100
     FM310900 VRB02KT 2SM BR SCT250
     FM311400 23005KT P6SM BKN250=



000
FTUS41 KPBZ 302234 AAB
TAFHLG
TAF AMD
KHLG 302234Z 3023/3118 22005KT P6SM SCT045 BKN100
     FM310900 VRB02KT 2SM BR SCT250
     FM311400 23005KT P6SM BKN250=



000
FTUS41 KPBZ 302104 AAA
TAFHLG
TAF AMD
KHLG 302104Z 3021/3118 23010KT P6SM VCSH BKN035
      TEMPO 3021/3023 21015G20KT 4SM -TSRA BKN035CB
     FM310900 VRB02KT 2SM BR SCT250
     FM311400 23005KT P6SM BKN250=



000
FTUS41 KPBZ 302102 AAA
TAFPIT
TAF AMD
KPIT 302102Z 3021/3124 27004KT P6SM SCT035 BKN100
     FM310900 VRB02KT 4SM BR SCT250
     FM311400 23005KT P6SM BKN250=



000
FTUS41 KPBZ 302015 AAA
TAFZZV
TAF AMD
KZZV 302015Z 3020/3118 23004KT P6SM SCT035
      TEMPO 3020/3022 5SM -TSRA BKN035CB
     FM310900 VRB02KT 3SM BR SCT250
     FM311400 23005KT P6SM BKN250=



000
FTUS41 KPBZ 302015 AAA
TAFZZV
TAF AMD
KZZV 302015Z 3020/3118 23004KT P6SM SCT035
      TEMPO 3020/3022 5SM -TSRA BKN035CB
     FM310900 VRB02KT 3SM BR SCT250
     FM311400 23005KT P6SM BKN250=



000
FTUS41 KPBZ 301730
TAFBVI
TAF
KBVI 301730Z 3018/3118 23004KT P6SM SCT035
     FM310900 VRB02KT 3SM BR SCT250
     FM311400 23005KT P6SM BKN250
      AMD NOT SKED=



000
FTUS41 KPBZ 301730
TAFMGW
TAF
KMGW 301730Z 3018/3118 23004KT P6SM SCT035
     FM310900 VRB02KT 4SM BR SCT250
     FM311400 23005KT P6SM BKN250=



000
FTUS41 KPBZ 301730
TAFLBE
TAF
KLBE 301730Z 3018/3118 25007KT P6SM SCT035
     FM310900 VRB02KT 4SM BR SCT250
     FM311400 23005KT P6SM BKN250=



000
FTUS41 KPBZ 301730
TAFAGC
TAF
KAGC 301730Z 3018/3118 23005KT P6SM SCT035
     FM310900 VRB02KT 4SM BR SCT250
     FM311400 23005KT P6SM BKN250=



000
FTUS41 KPBZ 301730
TAFZZV
TAF
KZZV 301730Z 3018/3118 23004KT P6SM SCT035
     FM310900 VRB02KT 3SM BR SCT250
     FM311400 23005KT P6SM BKN250=



000
FTUS41 KPBZ 301730
TAFMGW
TAF
KMGW 301730Z 3018/3118 23004KT P6SM SCT035
     FM310900 VRB02KT 4SM BR SCT250
     FM311400 23005KT P6SM BKN250=



000
FTUS41 KPBZ 301730
TAFHLG
TAF
KHLG 301730Z 3018/3118 23004KT P6SM SCT035
     FM310900 VRB02KT 2SM BR SCT250
     FM311400 23005KT P6SM BKN250=



000
FTUS41 KPBZ 301730
TAFLBE
TAF
KLBE 301730Z 3018/3118 25007KT P6SM SCT035
     FM310900 VRB02KT 4SM BR SCT250
     FM311400 23005KT P6SM BKN250=



000
FTUS41 KPBZ 301730
TAFPIT
TAF
KPIT 301730Z 3018/3124 23004KT P6SM SCT035
     FM310900 VRB02KT 4SM BR SCT250
     FM311400 23005KT P6SM BKN250=



000
FTUS41 KPBZ 301730
TAFDUJ
TAF
KDUJ 301730Z 3018/3118 23004KT P6SM SCT035
     FM310900 VRB02KT 2SM BR SCT250
     FM311400 23005KT P6SM BKN250=



000
FTUS41 KPBZ 301730
TAFAGC
TAF
KAGC 301730Z 3018/3118 23005KT P6SM SCT035
     FM310900 VRB02KT 4SM BR SCT250
     FM311400 23005KT P6SM BKN250=



000
FTUS41 KPBZ 301730
TAFHLG
TAF
KHLG 301730Z 3018/3118 23004KT P6SM SCT035
     FM310900 VRB02KT 2SM BR SCT250
     FM311400 23005KT P6SM BKN250=



000
FTUS41 KPBZ 301730
TAFPIT
TAF
KPIT 301730Z 3018/3124 23004KT P6SM SCT035
     FM310900 VRB02KT 4SM BR SCT250
     FM311400 23005KT P6SM BKN250=



000
FTUS41 KPBZ 301730
TAFDUJ
TAF
KDUJ 301730Z 3018/3118 23004KT P6SM SCT035
     FM310900 VRB02KT 2SM BR SCT250
     FM311400 23005KT P6SM BKN250=



000
FTUS41 KPBZ 301730
TAFBVI
TAF
KBVI 301730Z 3018/3118 23004KT P6SM SCT035
     FM310900 VRB02KT 3SM BR SCT250
     FM311400 23005KT P6SM BKN250
      AMD NOT SKED=



000
FTUS41 KPBZ 301730
TAFZZV
TAF
KZZV 301730Z 3018/3118 23004KT P6SM SCT035
     FM310900 VRB02KT 3SM BR SCT250
     FM311400 23005KT P6SM BKN250=



000
FTUS41 KPBZ 301617 AAA
TAFDUJ
TAF AMD
KDUJ 301617Z 3016/3112 27007KT P6SM BKN025
     FM302100 25008KT P6SM VCSH BKN035
     FM310000 VRB03KT P6SM BKN050
     FM310800 VRB02KT 3SM BR SCT050=



000
FTUS41 KPBZ 301617 AAA
TAFDUJ
TAF AMD
KDUJ 301617Z 3016/3112 27007KT P6SM BKN025
     FM302100 25008KT P6SM VCSH BKN035
     FM310000 VRB03KT P6SM BKN050
     FM310800 VRB02KT 3SM BR SCT050=



000
FTUS41 KPBZ 301506 AAA
TAFMGW
TAF AMD
KMGW 301506Z 3015/3112 17005KT P6SM SCT100
     FM301900 25008KT P6SM BKN050
     FM310300 VRB03KT P6SM SCT050=



000
FTUS41 KPBZ 301505 AAB
TAFLBE
TAF AMD
KLBE 301505Z 3015/3112 22005KT P6SM BKN100
     FM310300 VRB03KT P6SM BKN050=



000
FTUS41 KPBZ 301505 AAB
TAFLBE
TAF AMD
KLBE 301505Z 3015/3112 22005KT P6SM BKN100
     FM310300 VRB03KT P6SM BKN050=



000
FTUS41 KPBZ 301505 AAB
TAFHLG
TAF AMD
KHLG 301505Z 3015/3112 19005KT P6SM SCT100
     FM301900 25008KT P6SM BKN050
     FM310800 VRB02KT 3SM BR SCT050=



000
FTUS41 KPBZ 301504 AAA
TAFAGC
TAF AMD
KAGC 301504Z 3015/3112 15004KT P6SM BKN100
     FM301900 25008KT P6SM BKN050
     FM310900 VRB02KT 5SM BR SCT050=



000
FTUS41 KPBZ 301504 AAA
TAFAGC
TAF AMD
KAGC 301504Z 3015/3112 15004KT P6SM BKN100
     FM301900 25008KT P6SM BKN050
     FM310900 VRB02KT 5SM BR SCT050=



000
FTUS41 KPBZ 301504 AAA
TAFBVI
TAF AMD
KBVI 301504Z 3015/3112 VRB03KT P6SM OVC100
     FM301900 25008KT P6SM BKN050
     FM310800 VRB02KT 5SM BR SCT050
      AMD NOT SKED=



000
FTUS41 KPBZ 301504 AAA
TAFBVI
TAF AMD
KBVI 301504Z 3015/3112 VRB03KT P6SM OVC100
     FM301900 25008KT P6SM BKN050
     FM310800 VRB02KT 5SM BR SCT050
      AMD NOT SKED=



000
FTUS41 KPBZ 301503 AAA
TAFPIT
TAF AMD
KPIT 301503Z 3015/3118 15004KT P6SM BKN100
     FM301900 24008KT P6SM BKN050
     FM310900 VRB02KT 5SM BR SCT050=



000
FTUS41 KPBZ 301311 AAA
TAFZZV
TAF AMD
KZZV 301311Z 3013/3112 VRB04KT P6SM VCSH BKN050
     FM301600 16005KT P6SM BKN100
     FM310300 VRB03KT P6SM BKN050
     FM310800 VRB02KT 3SM BR SCT050=



000
FTUS41 KPBZ 301311 AAA
TAFZZV
TAF AMD
KZZV 301311Z 3013/3112 VRB04KT P6SM VCSH BKN050
     FM301600 16005KT P6SM BKN100
     FM310300 VRB03KT P6SM BKN050
     FM310800 VRB02KT 3SM BR SCT050=



000
FTUS41 KPBZ 301310 AAA
TAFHLG
TAF AMD
KHLG 301310Z 3013/3112 16005KT P6SM OVC090
     FM301600 25008KT P6SM BKN050
     FM310800 VRB02KT 3SM BR SCT050=



000
FTUS41 KPBZ 301309 AAA
TAFLBE
TAF AMD
KLBE 301309Z 3013/3112 VRB03KT P6SM BKN090
     FM301500 25008KT P6SM BKN040
     FM310300 VRB03KT P6SM BKN050=



000
FTUS41 KPBZ 301309 AAA
TAFLBE
TAF AMD
KLBE 301309Z 3013/3112 VRB03KT P6SM BKN090
     FM301500 25008KT P6SM BKN040
     FM310300 VRB03KT P6SM BKN050=



000
FTUS41 KPBZ 301134
TAFMGW
TAF
KMGW 301134Z 3012/3112 00000KT P6SM BKN100
     FM301600 25008KT P6SM BKN050
     FM310300 VRB03KT P6SM SCT050=



000
FTUS41 KPBZ 301134
TAFPIT
TAF
KPIT 301134Z 3012/3118 VRB03KT P6SM OVC100
     FM301700 25008KT P6SM BKN050
     FM310900 VRB02KT 5SM BR SCT050=



000
FTUS41 KPBZ 301134
TAFAGC
TAF
KAGC 301134Z 3012/3112 VRB03KT 5SM -RA BR OVC110
     FM301400 25008KT P6SM BKN050
     FM310900 VRB02KT 5SM BR SCT050=



000
FTUS41 KPBZ 301134
TAFLBE
TAF
KLBE 301134Z 3012/3112 24006KT P6SM BKN025
     FM301400 25008KT P6SM BKN040
     FM310300 VRB03KT P6SM BKN050=



000
FTUS41 KPBZ 301134
TAFDUJ
TAF
KDUJ 301134Z 3012/3112 VRB04KT 2SM -SHRA BR BKN100
     FM301400 23006KT P6SM BKN070
     FM301800 25008KT P6SM VCSH BKN035
     FM310000 VRB03KT P6SM BKN050
     FM310800 VRB02KT 3SM BR SCT050=



000
FTUS41 KPBZ 301134
TAFZZV
TAF
KZZV 301134Z 3012/3112 00000KT 3SM BR SCT100
     FM301500 VRB05KT P6SM VCSH BKN050
     FM310300 VRB03KT P6SM BKN050
     FM310800 VRB02KT 3SM BR SCT050=



000
FTUS41 KPBZ 301134
TAFHLG
TAF
KHLG 301134Z 3012/3112 14005KT 5SM BR OVC090
     FM301400 25008KT P6SM BKN050
     FM310800 VRB02KT 3SM BR SCT050=



000
FTUS41 KPBZ 301134
TAFBVI
TAF
KBVI 301134Z 3012/3112 VRB03KT P6SM OVC100
     FM301900 25008KT P6SM BKN050
     FM310800 VRB02KT 5SM BR SCT050=



000
FTUS41 KPBZ 301026 AAA
TAFLBE
TAF AMD
KLBE 301026Z 3010/3106 00000KT P6SM VCSH FEW045 SCT060
      TEMPO 3010/3012 3SM -SHRA BR BKN040
     FM301900 25008KT P6SM VCSH BKN050
     FM310300 VRB03KT P6SM BKN050
      AMD NOT SKED TIL 301100=



000
FTUS41 KPBZ 301025 AAA
TAFDUJ
TAF AMD
KDUJ 301025Z 3010/3106 00000KT 6SM BR VCSH OVC100
      TEMPO 3010/3013 3SM -SHRA BR BKN040
     FM301900 25008KT P6SM VCSH BKN050
     FM310200 VRB03KT P6SM BKN050=



000
FTUS41 KPBZ 301025 AAA
TAFDUJ
TAF AMD
KDUJ 301025Z 3010/3106 00000KT 6SM BR VCSH OVC100
      TEMPO 3010/3013 3SM -SHRA BR BKN040
     FM301900 25008KT P6SM VCSH BKN050
     FM310200 VRB03KT P6SM BKN050=



000
FTUS41 KPBZ 300855 AAB
TAFPIT
TAF AMD
KPIT 300855Z 3009/3112 25008KT 4SM -SHRA BKN040
     FM301200 25005KT P6SM BKN070
     FM301900 25008KT P6SM VCSH BKN050
     FM310300 VRB03KT P6SM BKN050=



000
FTUS41 KPBZ 300855 AAB
TAFPIT
TAF AMD
KPIT 300855Z 3009/3112 25008KT 4SM -SHRA BKN040
     FM301200 25005KT P6SM BKN070
     FM301900 25008KT P6SM VCSH BKN050
     FM310300 VRB03KT P6SM BKN050=



000
FTUS41 KPBZ 300814 AAA
TAFHLG
TAF AMD
KHLG 300814Z 3008/3106 19006KT P6SM VCTS BKN050CB
      TEMPO 3008/3010 3SM -SHRA BR BKN040
     FM301900 25008KT P6SM VCSH BKN050
     FM310300 VRB03KT P6SM BKN050=



000
FTUS41 KPBZ 300813 AAA
TAFPIT
TAF AMD
KPIT 300813Z 3008/3112 VRB04KT P6SM VCSH BKN050
     FM300900 VRB03KT 4SM -SHRA BKN040
     FM301200 25005KT P6SM BKN070
     FM301900 25008KT P6SM VCSH BKN050
     FM310300 VRB03KT P6SM BKN050=



000
FTUS41 KPBZ 300534
TAFDUJ
TAF
KDUJ 300534Z 3006/3106 00000KT P6SM SCT070
     FM301900 25008KT P6SM VCSH BKN050
     FM310200 VRB03KT P6SM BKN050=



000
FTUS41 KPBZ 300534
TAFMGW
TAF
KMGW 300534Z 3006/3106 19003KT P6SM SKC
     FM301600 25008KT P6SM BKN050=



000
FTUS41 KPBZ 300534
TAFPIT
TAF
KPIT 300534Z 3006/3112 VRB04KT P6SM BKN100
     FM301900 25008KT P6SM VCSH BKN050
     FM310300 VRB03KT P6SM BKN050=



000
FTUS41 KPBZ 300534
TAFZZV
TAF
KZZV 300534Z 3006/3106 00000KT P6SM VCTS BKN050CB
     FM300700 VRB03KT P6SM BKN070
     FM301800 VRB05KT P6SM VCSH BKN050
     FM310300 VRB03KT P6SM BKN050=



000
FTUS41 KPBZ 300534
TAFAGC
TAF
KAGC 300534Z 3006/3106 VRB04KT P6SM SCT100
     FM301900 25008KT P6SM VCSH BKN050
     FM310300 VRB03KT P6SM BKN050=



000
FTUS41 KPBZ 300534
TAFHLG
TAF
KHLG 300534Z 3006/3106 19005KT P6SM BKN070
     FM301900 25008KT P6SM VCSH BKN050
     FM310300 VRB03KT P6SM BKN050=



000
FTUS41 KPBZ 300534
TAFLBE
TAF
KLBE 300534Z 3006/3106 00000KT P6SM SCT060
     FM301900 25008KT P6SM VCSH BKN050
     FM310300 VRB03KT P6SM BKN050
      AMD NOT SKED TIL 301100=



000
FTUS41 KPBZ 300534
TAFBVI
TAF
KBVI 300534Z 3006/3106 VRB04KT P6SM BKN080
     FM301900 25008KT P6SM VCSH BKN050
     FM310300 VRB03KT P6SM BKN050
      AMD NOT SKED TIL 301200=



000
FTUS41 KPBZ 300246 AAA
TAFPIT
TAF AMD
KPIT 300246Z 3003/3106 VRB05KT P6SM BKN080
     FM301900 25008KT P6SM VCSH BKN050
     FM310300 VRB03KT P6SM BKN250=



000
FTUS41 KPBZ 300246 AAA
TAFPIT
TAF AMD
KPIT 300246Z 3003/3106 VRB05KT P6SM BKN080
     FM301900 25008KT P6SM VCSH BKN050
     FM310300 VRB03KT P6SM BKN250=



000
FTUS41 KPBZ 292320
TAFZZV
TAF
KZZV 292320Z 3000/3024 26006KT P6SM VCSH BKN060
     FM300300 VRB05KT P6SM BKN080
     FM301800 VRB05KT P6SM VCSH BKN050=



000
FTUS41 KPBZ 292320
TAFBVI
TAF
KBVI 292320Z 3000/3024 VRB05KT P6SM BKN080
     FM301900 25008KT P6SM VCSH BKN050
      AMD NOT SKED 3002/3012=



000
FTUS41 KPBZ 292320
TAFPIT
TAF
KPIT 292320Z 3000/3106 VRB05KT P6SM BKN080
     FM301900 25008KT P6SM VCSH BKN050
     FM310300 VRB03KT P6SM BKN250=



000
FTUS41 KPBZ 292320
TAFAGC
TAF
KAGC 292320Z 3000/3024 VRB05KT P6SM BKN080
     FM301900 25008KT P6SM VCSH BKN050=



000
FTUS41 KPBZ 292320
TAFLBE
TAF
KLBE 292320Z 3000/3024 VRB05KT P6SM BKN080
     FM301900 25008KT P6SM VCSH BKN050
      AMD NOT SKED 3002/3011=



000
FTUS41 KPBZ 292320
TAFMGW
TAF
KMGW 292320Z 3000/3024 VRB05KT P6SM SCT080
     FM301600 25008KT P6SM BKN050=



000
FTUS41 KPBZ 292320
TAFHLG
TAF
KHLG 292320Z 3000/3024 VRB05KT P6SM BKN080
     FM301900 25008KT P6SM VCSH BKN050=



000
FTUS41 KPBZ 292320
TAFZZV
TAF
KZZV 292320Z 3000/3024 26006KT P6SM VCSH BKN060
     FM300300 VRB05KT P6SM BKN080
     FM301800 VRB05KT P6SM VCSH BKN050=



000
FTUS41 KPBZ 292320
TAFPIT
TAF
KPIT 292320Z 3000/3106 VRB05KT P6SM BKN080
     FM301900 25008KT P6SM VCSH BKN050
     FM310300 VRB03KT P6SM BKN250=



000
FTUS41 KPBZ 292320
TAFBVI
TAF
KBVI 292320Z 3000/3024 VRB05KT P6SM BKN080
     FM301900 25008KT P6SM VCSH BKN050
      AMD NOT SKED 3002/3012=



000
FTUS41 KPBZ 292320
TAFHLG
TAF
KHLG 292320Z 3000/3024 VRB05KT P6SM BKN080
     FM301900 25008KT P6SM VCSH BKN050=



000
FTUS41 KPBZ 292320
TAFAGC
TAF
KAGC 292320Z 3000/3024 VRB05KT P6SM BKN080
     FM301900 25008KT P6SM VCSH BKN050=



000
FTUS41 KPBZ 292320
TAFLBE
TAF
KLBE 292320Z 3000/3024 VRB05KT P6SM BKN080
     FM301900 25008KT P6SM VCSH BKN050
      AMD NOT SKED 3002/3011=



000
FTUS41 KPBZ 292320
TAFMGW
TAF
KMGW 292320Z 3000/3024 VRB05KT P6SM SCT080
     FM301600 25008KT P6SM BKN050=



000
FTUS41 KPBZ 292320
TAFDUJ
TAF
KDUJ 292320Z 3000/3024 VRB05KT P6SM BKN080
     FM301900 25008KT P6SM VCSH BKN050=



000
FTUS41 KPBZ 292320
TAFDUJ
TAF
KDUJ 292320Z 3000/3024 VRB05KT P6SM BKN080
     FM301900 25008KT P6SM VCSH BKN050=



000
FTUS41 KPBZ 292056 AAA
TAFPIT
TAF AMD
KPIT 292056Z 2921/3024 24007KT P6SM BKN050
     FM300300 VRB03KT P6SM BKN100=



000
FTUS41 KPBZ 291730
TAFAGC
TAF
KAGC 291730Z 2918/3018 26005KT P6SM SCT050 SCT250
     FM292200 24007KT P6SM BKN050
     FM300300 VRB03KT P6SM BKN100=



000
FTUS41 KPBZ 291730
TAFLBE
TAF
KLBE 291730Z 2918/3018 25006KT P6SM SCT050 SCT250
     FM292200 24007KT P6SM BKN050
     FM300300 VRB03KT P6SM BKN100=



000
FTUS41 KPBZ 291730
TAFMGW
TAF
KMGW 291730Z 2918/3018 24004KT P6SM SCT050 SCT250
     FM292200 23007KT P6SM BKN050
     FM300300 VRB03KT P6SM BKN100=



000
FTUS41 KPBZ 291730
TAFBVI
TAF
KBVI 291730Z 2918/3018 27005KT P6SM BKN050
     FM292200 24007KT P6SM BKN050
     FM300300 VRB03KT P6SM BKN100=



000
FTUS41 KPBZ 291730
TAFDUJ
TAF
KDUJ 291730Z 2918/3018 26006KT P6SM SCT050 SCT250
     FM292200 24007KT P6SM BKN050
     FM300300 VRB03KT P6SM BKN100=



000
FTUS41 KPBZ 291730
TAFDUJ
TAF
KDUJ 291730Z 2918/3018 26006KT P6SM SCT050 SCT250
     FM292200 24007KT P6SM BKN050
     FM300300 VRB03KT P6SM BKN100=



000
FTUS41 KPBZ 291730
TAFPIT
TAF
KPIT 291730Z 2918/3024 26006KT P6SM SCT050 SCT250
     FM292200 24007KT P6SM BKN050
     FM300300 VRB03KT P6SM BKN100=



000
FTUS41 KPBZ 291730
TAFBVI
TAF
KBVI 291730Z 2918/3018 27005KT P6SM BKN050
     FM292200 24007KT P6SM BKN050
     FM300300 VRB03KT P6SM BKN100=



000
FTUS41 KPBZ 291730
TAFHLG
TAF
KHLG 291730Z 2918/3018 23004KT P6SM SCT050 SCT250
     FM292200 24007KT P6SM BKN050
     FM300300 VRB03KT P6SM BKN100=



000
FTUS41 KPBZ 291730
TAFZZV
TAF
KZZV 291730Z 2918/3018 26006KT P6SM SCT050 SCT250
     FM292200 24007KT P6SM BKN050
     FM300300 VRB03KT P6SM BKN100=



000
FTUS41 KPBZ 291730
TAFLBE
TAF
KLBE 291730Z 2918/3018 25006KT P6SM SCT050 SCT250
     FM292200 24007KT P6SM BKN050
     FM300300 VRB03KT P6SM BKN100=



000
FTUS41 KPBZ 291730
TAFMGW
TAF
KMGW 291730Z 2918/3018 24004KT P6SM SCT050 SCT250
     FM292200 23007KT P6SM BKN050
     FM300300 VRB03KT P6SM BKN100=



000
FTUS41 KPBZ 291730
TAFAGC
TAF
KAGC 291730Z 2918/3018 26005KT P6SM SCT050 SCT250
     FM292200 24007KT P6SM BKN050
     FM300300 VRB03KT P6SM BKN100=



000
FTUS41 KPBZ 291730
TAFHLG
TAF
KHLG 291730Z 2918/3018 23004KT P6SM SCT050 SCT250
     FM292200 24007KT P6SM BKN050
     FM300300 VRB03KT P6SM BKN100=



000
FTUS41 KPBZ 291730
TAFPIT
TAF
KPIT 291730Z 2918/3024 26006KT P6SM SCT050 SCT250
     FM292200 24007KT P6SM BKN050
     FM300300 VRB03KT P6SM BKN100=



000
FTUS41 KPBZ 291730
TAFZZV
TAF
KZZV 291730Z 2918/3018 26006KT P6SM SCT050 SCT250
     FM292200 24007KT P6SM BKN050
     FM300300 VRB03KT P6SM BKN100=



000
FTUS41 KPBZ 291500 AAA
TAFPIT
TAF AMD
KPIT 291500Z 2915/3018 25004KT P6SM SCT250
     FM291800 24005KT P6SM BKN050
     FM300300 VRB03KT P6SM BKN100=



000
FTUS41 KPBZ 291125
TAFPIT
TAF
KPIT 291125Z 2912/3018 25004KT P6SM SCT250
     FM291800 24005KT P6SM BKN050=



000
FTUS41 KPBZ 291125
TAFBVI
TAF
KBVI 291125Z 2912/3012 00000KT P6SM SCT250
     FM291800 24005KT P6SM BKN050
      AMD NOT SKED=



000
FTUS41 KPBZ 291125
TAFAGC
TAF
KAGC 291125Z 2912/3012 25004KT P6SM SCT250
     FM291800 26005KT P6SM BKN050=



000
FTUS41 KPBZ 291125
TAFZZV
TAF
KZZV 291125Z 2912/3012 25003KT P6SM BKN200
     FM291800 22005KT P6SM BKN050 PROB30 3000/3006 5SM -SHRA BKN035=



000
FTUS41 KPBZ 291125
TAFDUJ
TAF
KDUJ 291125Z 2912/3012 08003KT P6SM SKC
     FM291600 22005KT P6SM BKN050=



000
FTUS41 KPBZ 291125
TAFHLG
TAF
KHLG 291125Z 2912/3012 23004KT P6SM SCT250
     FM291800 24005KT P6SM BKN050 PROB30 3000/3006 5SM -SHRA BKN035=



000
FTUS41 KPBZ 291125
TAFLBE
TAF
KLBE 291125Z 2912/3012 VRB03KT P6SM SCT250
     FM291800 24005KT P6SM BKN050
      AMD NOT SKED=



000
FTUS41 KPBZ 291125
TAFMGW
TAF
KMGW 291125Z 2912/3012 22003KT P6SM SCT250
     FM291800 24005KT P6SM SCT050=



000
FTUS41 KPBZ 290951 AAB
TAFHLG
TAF AMD
KHLG 290951Z 2910/3006 00000KT P6SM SCT250
      TEMPO 2911/2912 5SM BR SCT250
     FM291800 24005KT P6SM BKN050=



000
FTUS41 KPBZ 290951 AAB
TAFZZV
TAF AMD
KZZV 290951Z 2910/3006 00000KT 6SM BR SKC
      TEMPO 2911/2912 3SM BR SCT250
     FM291300 10003KT P6SM SCT250
     FM291800 22005KT P6SM BKN050=



000
FTUS41 KPBZ 290850 AAA
TAFPIT
TAF AMD
KPIT 290850Z 2909/3012 00000KT P6SM SKC
      TEMPO 2910/2912 5SM BR SCT250
     FM291800 24005KT P6SM BKN050=



000
FTUS41 KPBZ 290835 AAA
TAFDUJ
TAF AMD
KDUJ 290835Z 2909/3006 08003KT P6SM SKC
      TEMPO 2910/2912 1/2SM FG
     FM291600 22005KT P6SM BKN050=



000
FTUS41 KPBZ 290834 AAA
TAFZZV
TAF AMD
KZZV 290834Z 2909/3006 00000KT P6SM SKC
      TEMPO 2909/2912 1SM BR SCT250
     FM291300 10003KT P6SM SCT250
     FM291800 22005KT P6SM BKN050=



000
FTUS41 KPBZ 290833 AAA
TAFHLG
TAF AMD
KHLG 290833Z 2909/3006 00000KT 6SM BR SKC
      TEMPO 2909/2912 1SM BR SCT250
     FM291300 10003KT P6SM SCT250
     FM291800 24005KT P6SM BKN050=



000
FTUS41 KPBZ 290832 AAA
TAFAGC
TAF AMD
KAGC 290832Z 2909/3006 00000KT 5SM BR SKC
     FM291300 22004KT P6SM SCT250
     FM291800 26005KT P6SM BKN050=



000
FTUS41 KPBZ 290535
TAFAGC
TAF
KAGC 290535Z 2906/3006 07004KT P6SM SCT250
     FM291800 24005KT P6SM BKN050=



000
FTUS41 KPBZ 290535
TAFZZV
TAF
KZZV 290535Z 2906/3006 00000KT P6SM SCT250
      TEMPO 2908/2912 1SM BR
     FM291800 22005KT P6SM BKN050=



000
FTUS41 KPBZ 290535
TAFHLG
TAF
KHLG 290535Z 2906/3006 10003KT P6SM SCT250
      TEMPO 2908/2912 1SM BR SCT250
     FM291800 24005KT P6SM BKN050=



000
FTUS41 KPBZ 290535
TAFBVI
TAF
KBVI 290535Z 2906/3006 00000KT P6SM SCT250
      TEMPO 2909/2912 1SM BR SCT250
     FM291800 24005KT P6SM BKN050
      AMD NOT SKED=



000
FTUS41 KPBZ 290535
TAFMGW
TAF
KMGW 290535Z 2906/3006 00000KT P6SM SCT250
     FM291800 24005KT P6SM SCT050=



000
FTUS41 KPBZ 290535
TAFPIT
TAF
KPIT 290535Z 2906/3012 00000KT P6SM SCT250
      TEMPO 2909/2911 5SM BR SCT250
     FM291800 24005KT P6SM BKN050=



000
FTUS41 KPBZ 290535
TAFDUJ
TAF
KDUJ 290535Z 2906/3006 12004KT P6SM SKC
     FM290700 00000KT 3SM BR SCT250
      TEMPO 2908/2912 1/2SM FG
     FM291600 22005KT P6SM BKN050=



000
FTUS41 KPBZ 290535
TAFLBE
TAF
KLBE 290535Z 2906/3006 VRB03KT P6SM SCT250
     FM291800 24005KT P6SM BKN050
      AMD NOT SKED=



000
FTUS41 KPBZ 290305 AAA
TAFPIT
TAF AMD
KPIT 290305Z 2903/3006 VRB03KT P6SM BKN200
     FM300000 24005KT P6SM BKN050=



000
FTUS41 KPBZ 290305 AAA
TAFPIT
TAF AMD
KPIT 290305Z 2903/3006 VRB03KT P6SM BKN200
     FM300000 24005KT P6SM BKN050=



000
FTUS41 KPBZ 282320
TAFAGC
TAF
KAGC 282320Z 2900/2924 VRB03KT P6SM BKN200=



000
FTUS41 KPBZ 282320
TAFBVI
TAF
KBVI 282320Z 2900/2924 VRB03KT P6SM BKN200
      AMD NOT SKED 2902/2912=



000
FTUS41 KPBZ 282320
TAFDUJ
TAF
KDUJ 282320Z 2900/2924 VRB03KT P6SM BKN200
      TEMPO 2909/2912 2SM BR=



000
FTUS41 KPBZ 282320
TAFPIT
TAF
KPIT 282320Z 2900/3006 VRB03KT P6SM BKN200
     FM300000 24005KT P6SM BKN050=



000
FTUS41 KPBZ 282320
TAFBVI
TAF
KBVI 282320Z 2900/2924 VRB03KT P6SM BKN200
      AMD NOT SKED 2902/2912=



000
FTUS41 KPBZ 282320
TAFLBE
TAF
KLBE 282320Z 2900/2924 VRB03KT P6SM BKN200
      AMD NOT SKED 2902/2911=



000
FTUS41 KPBZ 282320
TAFHLG
TAF
KHLG 282320Z 2900/2924 VRB03KT P6SM BKN200
      TEMPO 2910/2913 4SM BR=



000
FTUS41 KPBZ 282320
TAFPIT
TAF
KPIT 282320Z 2900/3006 VRB03KT P6SM BKN200
     FM300000 24005KT P6SM BKN050=



000
FTUS41 KPBZ 282320
TAFMGW
TAF
KMGW 282320Z 2900/2924 VRB03KT P6SM BKN200=



000
FTUS41 KPBZ 282320
TAFHLG
TAF
KHLG 282320Z 2900/2924 VRB03KT P6SM BKN200
      TEMPO 2910/2913 4SM BR=



000
FTUS41 KPBZ 282320
TAFLBE
TAF
KLBE 282320Z 2900/2924 VRB03KT P6SM BKN200
      AMD NOT SKED 2902/2911=



000
FTUS41 KPBZ 282320
TAFZZV
TAF
KZZV 282320Z 2900/2924 VRB03KT P6SM BKN200
      TEMPO 2910/2912 5SM BR
     FM291600 22005KT P6SM BKN050=



000
FTUS41 KPBZ 282320
TAFMGW
TAF
KMGW 282320Z 2900/2924 VRB03KT P6SM BKN200=



000
FTUS41 KPBZ 282320
TAFAGC
TAF
KAGC 282320Z 2900/2924 VRB03KT P6SM BKN200=



000
FTUS41 KPBZ 282320
TAFZZV
TAF
KZZV 282320Z 2900/2924 VRB03KT P6SM BKN200
      TEMPO 2910/2912 5SM BR
     FM291600 22005KT P6SM BKN050=



000
FTUS41 KPBZ 282320
TAFDUJ
TAF
KDUJ 282320Z 2900/2924 VRB03KT P6SM BKN200
      TEMPO 2909/2912 2SM BR=



000
FTUS41 KPBZ 282055 AAA
TAFPIT
TAF AMD
KPIT 282055Z 2821/2924 VRB03KT P6SM SCT050=



000
FTUS41 KPBZ 282055 AAA
TAFPIT
TAF AMD
KPIT 282055Z 2821/2924 VRB03KT P6SM SCT050=



    US Dept of Commerce
    National Oceanic and Atmospheric Administration
    National Weather Service
    1325 East West Highway
    Silver Spring, MD 20910
    Page Author: NWS Internet Services Team
Disclaimer
Information Quality
Credits
Glossary
Privacy Policy
Freedom of Information Act (FOIA)
About Us
Career Opportunities